sensor_id;sensor_type;location;lat;lon;timestamp;P1;durP1;ratioP1;P2;durP2;ratioP2
70199;SDS011;57587;55.688;37.600;2023-04-03T00:01:07;31.77;;;14.57;;
70199;SDS011;57587;55.688;37.600;2023-04-03T00:03:35;17.73;;;10.93;;
70199;SDS011;57587;55.688;37.600;2023-04-03T00:06:02;19.33;;;11.57;;
70199;SDS011;57587;55.688;37.600;2023-04-03T00:08:30;20.58;;;10.82;;
70199;SDS011;57587;55.688;37.600;2023-04-03T00:10:57;18.27;;;10.50;;
70199;SDS011;57587;55.688;37.600;2023-04-03T00:13:24;19.47;;;10.10;;
70199;SDS011;57587;55.688;37.600;2023-04-03T00:15:52;21.73;;;10.20;;
70199;SDS011;57587;55.688;37.600;2023-04-03T00:18:19;16.50;;;9.68;;
70199;SDS011;57587;55.688;37.600;2023-04-03T00:20:46;16.23;;;8.77;;
70199;SDS011;57587;55.688;37.600;2023-04-03T00:23:14;19.95;;;9.30;;
70199;SDS011;57587;55.688;37.600;2023-04-03T00:25:41;14.77;;;8.90;;
70199;SDS011;57587;55.688;37.600;2023-04-03T00:28:08;16.98;;;9.48;;
70199;SDS011;57587;55.688;37.600;2023-04-03T00:30:36;17.40;;;10.05;;
70199;SDS011;57587;55.688;37.600;2023-04-03T00:33:04;16.50;;;9.98;;
70199;SDS011;57587;55.688;37.600;2023-04-03T00:35:31;16.25;;;10.27;;
70199;SDS011;57587;55.688;37.600;2023-04-03T00:38:00;18.57;;;10.53;;
70199;SDS011;57587;55.688;37.600;2023-04-03T00:40:27;19.48;;;10.27;;
70199;SDS011;57587;55.688;37.600;2023-04-03T00:43:15;21.60;;;12.98;;
70199;SDS011;57587;55.688;37.600;2023-04-03T00:45:51;39.13;;;26.90;;
70199;SDS011;57587;55.688;37.600;2023-04-03T00:48:20;44.03;;;29.77;;
70199;SDS011;57587;55.688;37.600;2023-04-03T00:50:51;42.37;;;28.13;;
70199;SDS011;57587;55.688;37.600;2023-04-03T00:53:21;25.55;;;16.55;;
70199;SDS011;57587;55.688;37.600;2023-04-03T00:55:52;16.88;;;11.38;;
70199;SDS011;57587;55.688;37.600;2023-04-03T00:58:24;15.88;;;9.68;;
70199;SDS011;57587;55.688;37.600;2023-04-03T01:00:58;14.52;;;8.48;;
70199;SDS011;57587;55.688;37.600;2023-04-03T01:03:31;16.63;;;8.73;;
70199;SDS011;57587;55.688;37.600;2023-04-03T01:06:01;13.88;;;8.80;;
70199;SDS011;57587;55.688;37.600;2023-04-03T01:08:29;19.95;;;10.27;;
70199;SDS011;57587;55.688;37.600;2023-04-03T01:10:57;16.05;;;8.90;;
70199;SDS011;57587;55.688;37.600;2023-04-03T01:13:27;15.52;;;9.10;;
70199;SDS011;57587;55.688;37.600;2023-04-03T01:15:56;14.23;;;9.13;;
70199;SDS011;57587;55.688;37.600;2023-04-03T01:18:26;18.92;;;9.75;;
70199;SDS011;57587;55.688;37.600;2023-04-03T01:26:43;13.70;;;9.15;;
70199;SDS011;57587;55.688;37.600;2023-04-03T01:29:11;15.40;;;8.70;;
70199;SDS011;57587;55.688;37.600;2023-04-03T01:31:52;16.20;;;8.98;;
70199;SDS011;57587;55.688;37.600;2023-04-03T01:34:19;14.48;;;8.10;;
70199;SDS011;57587;55.688;37.600;2023-04-03T01:36:48;14.00;;;7.93;;
70199;SDS011;57587;55.688;37.600;2023-04-03T01:39:16;16.25;;;8.10;;
70199;SDS011;57587;55.688;37.600;2023-04-03T01:41:44;14.17;;;7.80;;
70199;SDS011;57587;55.688;37.600;2023-04-03T01:44:17;12.55;;;8.50;;
70199;SDS011;57587;55.688;37.600;2023-04-03T01:46:44;13.50;;;8.35;;
70199;SDS011;57587;55.688;37.600;2023-04-03T01:49:11;18.70;;;8.45;;
70199;SDS011;57587;55.688;37.600;2023-04-03T01:51:38;17.05;;;8.82;;
70199;SDS011;57587;55.688;37.600;2023-04-03T01:54:06;13.10;;;8.23;;
70199;SDS011;57587;55.688;37.600;2023-04-03T01:56:33;14.43;;;9.15;;
70199;SDS011;57587;55.688;37.600;2023-04-03T01:59:00;21.13;;;10.20;;
70199;SDS011;57587;55.688;37.600;2023-04-03T02:01:27;15.40;;;9.30;;
70199;SDS011;57587;55.688;37.600;2023-04-03T02:03:54;15.93;;;9.13;;
70199;SDS011;57587;55.688;37.600;2023-04-03T02:06:22;22.60;;;9.50;;
70199;SDS011;57587;55.688;37.600;2023-04-03T02:08:50;17.45;;;9.65;;
70199;SDS011;57587;55.688;37.600;2023-04-03T02:11:17;15.90;;;9.43;;
70199;SDS011;57587;55.688;37.600;2023-04-03T02:13:44;22.48;;;9.02;;
70199;SDS011;57587;55.688;37.600;2023-04-03T02:16:11;17.67;;;9.45;;
70199;SDS011;57587;55.688;37.600;2023-04-03T02:18:40;19.43;;;10.50;;
70199;SDS011;57587;55.688;37.600;2023-04-03T02:21:08;17.85;;;10.23;;
70199;SDS011;57587;55.688;37.600;2023-04-03T02:23:35;23.13;;;10.90;;
70199;SDS011;57587;55.688;37.600;2023-04-03T02:26:04;18.58;;;10.00;;
70199;SDS011;57587;55.688;37.600;2023-04-03T02:28:33;21.00;;;10.68;;
70199;SDS011;57587;55.688;37.600;2023-04-03T02:31:01;17.83;;;11.00;;
70199;SDS011;57587;55.688;37.600;2023-04-03T02:33:30;20.77;;;10.60;;
70199;SDS011;57587;55.688;37.600;2023-04-03T02:35:58;22.40;;;11.25;;
70199;SDS011;57587;55.688;37.600;2023-04-03T02:38:26;23.20;;;10.38;;
70199;SDS011;57587;55.688;37.600;2023-04-03T02:40:55;20.60;;;11.52;;
70199;SDS011;57587;55.688;37.600;2023-04-03T02:43:27;23.07;;;11.10;;
70199;SDS011;57587;55.688;37.600;2023-04-03T02:45:54;22.17;;;11.18;;
70199;SDS011;57587;55.688;37.600;2023-04-03T02:48:22;22.02;;;11.75;;
70199;SDS011;57587;55.688;37.600;2023-04-03T02:50:49;23.98;;;11.30;;
70199;SDS011;57587;55.688;37.600;2023-04-03T02:53:17;23.52;;;11.30;;
70199;SDS011;57587;55.688;37.600;2023-04-03T02:55:45;19.23;;;11.20;;
70199;SDS011;57587;55.688;37.600;2023-04-03T02:58:12;23.90;;;11.73;;
70199;SDS011;57587;55.688;37.600;2023-04-03T03:00:39;22.63;;;11.75;;
70199;SDS011;57587;55.688;37.600;2023-04-03T03:03:06;23.02;;;11.30;;
70199;SDS011;57587;55.688;37.600;2023-04-03T03:05:34;20.77;;;10.80;;
70199;SDS011;57587;55.688;37.600;2023-04-03T03:08:01;25.70;;;11.67;;
70199;SDS011;57587;55.688;37.600;2023-04-03T03:10:28;22.55;;;12.02;;
70199;SDS011;57587;55.688;37.600;2023-04-03T03:12:55;22.10;;;11.60;;
70199;SDS011;57587;55.688;37.600;2023-04-03T03:15:23;21.65;;;11.98;;
70199;SDS011;57587;55.688;37.600;2023-04-03T03:17:50;25.13;;;11.88;;
70199;SDS011;57587;55.688;37.600;2023-04-03T03:20:17;19.83;;;11.23;;
70199;SDS011;57587;55.688;37.600;2023-04-03T03:22:44;19.92;;;11.90;;
70199;SDS011;57587;55.688;37.600;2023-04-03T03:25:11;22.95;;;12.13;;
70199;SDS011;57587;55.688;37.600;2023-04-03T03:27:38;23.98;;;13.40;;
70199;SDS011;57587;55.688;37.600;2023-04-03T03:30:06;28.38;;;12.18;;
70199;SDS011;57587;55.688;37.600;2023-04-03T03:32:34;37.37;;;20.70;;
70199;SDS011;57587;55.688;37.600;2023-04-03T03:35:01;29.80;;;14.65;;
70199;SDS011;57587;55.688;37.600;2023-04-03T03:37:28;23.80;;;13.15;;
70199;SDS011;57587;55.688;37.600;2023-04-03T03:39:56;26.08;;;13.27;;
70199;SDS011;57587;55.688;37.600;2023-04-03T03:42:23;22.50;;;12.32;;
70199;SDS011;57587;55.688;37.600;2023-04-03T03:44:50;21.97;;;12.80;;
70199;SDS011;57587;55.688;37.600;2023-04-03T03:47:19;23.30;;;12.77;;
70199;SDS011;57587;55.688;37.600;2023-04-03T03:49:47;24.73;;;12.63;;
70199;SDS011;57587;55.688;37.600;2023-04-03T03:52:15;23.77;;;12.88;;
70199;SDS011;57587;55.688;37.600;2023-04-03T03:54:42;26.63;;;14.57;;
70199;SDS011;57587;55.688;37.600;2023-04-03T03:57:10;25.30;;;12.97;;
70199;SDS011;57587;55.688;37.600;2023-04-03T03:59:37;26.35;;;14.23;;
70199;SDS011;57587;55.688;37.600;2023-04-03T04:02:04;27.75;;;14.45;;
70199;SDS011;57587;55.688;37.600;2023-04-03T04:04:31;27.20;;;14.52;;
70199;SDS011;57587;55.688;37.600;2023-04-03T04:06:59;23.05;;;13.43;;
70199;SDS011;57587;55.688;37.600;2023-04-03T04:09:27;25.03;;;14.67;;
70199;SDS011;57587;55.688;37.600;2023-04-03T04:11:54;30.13;;;13.82;;
70199;SDS011;57587;55.688;37.600;2023-04-03T04:14:22;26.20;;;13.95;;
70199;SDS011;57587;55.688;37.600;2023-04-03T04:16:50;29.13;;;14.07;;
70199;SDS011;57587;55.688;37.600;2023-04-03T04:19:22;27.85;;;13.75;;
70199;SDS011;57587;55.688;37.600;2023-04-03T04:21:49;25.07;;;13.67;;
70199;SDS011;57587;55.688;37.600;2023-04-03T04:24:18;28.05;;;14.82;;
70199;SDS011;57587;55.688;37.600;2023-04-03T04:26:48;30.92;;;14.18;;
70199;SDS011;57587;55.688;37.600;2023-04-03T04:29:16;28.02;;;13.90;;
70199;SDS011;57587;55.688;37.600;2023-04-03T04:31:46;31.55;;;13.30;;
70199;SDS011;57587;55.688;37.600;2023-04-03T04:34:13;23.30;;;13.20;;
70199;SDS011;57587;55.688;37.600;2023-04-03T04:36:41;25.98;;;13.45;;
70199;SDS011;57587;55.688;37.600;2023-04-03T04:39:09;29.95;;;14.25;;
70199;SDS011;57587;55.688;37.600;2023-04-03T04:41:37;35.30;;;13.88;;
70199;SDS011;57587;55.688;37.600;2023-04-03T04:44:05;36.05;;;15.10;;
70199;SDS011;57587;55.688;37.600;2023-04-03T04:46:32;29.97;;;14.87;;
70199;SDS011;57587;55.688;37.600;2023-04-03T04:49:00;28.25;;;15.88;;
70199;SDS011;57587;55.688;37.600;2023-04-03T04:51:29;30.00;;;16.77;;
70199;SDS011;57587;55.688;37.600;2023-04-03T04:54:16;36.70;;;15.93;;
70199;SDS011;57587;55.688;37.600;2023-04-03T04:56:45;29.77;;;14.48;;
70199;SDS011;57587;55.688;37.600;2023-04-03T04:59:12;26.67;;;14.13;;
70199;SDS011;57587;55.688;37.600;2023-04-03T05:01:40;25.75;;;14.45;;
70199;SDS011;57587;55.688;37.600;2023-04-03T05:04:11;28.80;;;15.02;;
70199;SDS011;57587;55.688;37.600;2023-04-03T05:06:39;27.83;;;13.48;;
70199;SDS011;57587;55.688;37.600;2023-04-03T05:09:12;28.05;;;14.55;;
70199;SDS011;57587;55.688;37.600;2023-04-03T05:11:42;25.07;;;13.57;;
70199;SDS011;57587;55.688;37.600;2023-04-03T05:14:11;27.30;;;13.75;;
70199;SDS011;57587;55.688;37.600;2023-04-03T05:16:39;24.75;;;13.32;;
70199;SDS011;57587;55.688;37.600;2023-04-03T05:19:06;22.58;;;12.30;;
70199;SDS011;57587;55.688;37.600;2023-04-03T05:21:33;27.25;;;13.60;;
70199;SDS011;57587;55.688;37.600;2023-04-03T05:24:07;24.20;;;12.60;;
70199;SDS011;57587;55.688;37.600;2023-04-03T05:26:39;25.30;;;12.60;;
70199;SDS011;57587;55.688;37.600;2023-04-03T05:29:07;22.77;;;13.10;;
70199;SDS011;57587;55.688;37.600;2023-04-03T05:31:35;25.67;;;12.00;;
70199;SDS011;57587;55.688;37.600;2023-04-03T05:34:02;22.70;;;12.32;;
70199;SDS011;57587;55.688;37.600;2023-04-03T05:36:32;24.70;;;12.60;;
70199;SDS011;57587;55.688;37.600;2023-04-03T05:39:03;21.10;;;11.98;;
70199;SDS011;57587;55.688;37.600;2023-04-03T05:41:32;23.60;;;12.48;;
70199;SDS011;57587;55.688;37.600;2023-04-03T05:43:59;24.58;;;12.10;;
70199;SDS011;57587;55.688;37.600;2023-04-03T05:46:27;26.63;;;13.02;;
70199;SDS011;57587;55.688;37.600;2023-04-03T05:48:56;29.47;;;12.37;;
70199;SDS011;57587;55.688;37.600;2023-04-03T05:51:35;28.42;;;12.35;;
70199;SDS011;57587;55.688;37.600;2023-04-03T05:54:18;21.35;;;11.75;;
70199;SDS011;57587;55.688;37.600;2023-04-03T05:56:55;26.73;;;12.68;;
70199;SDS011;57587;55.688;37.600;2023-04-03T05:59:23;26.33;;;11.73;;
70199;SDS011;57587;55.688;37.600;2023-04-03T06:01:53;23.43;;;12.60;;
70199;SDS011;57587;55.688;37.600;2023-04-03T06:04:21;23.52;;;11.88;;
70199;SDS011;57587;55.688;37.600;2023-04-03T06:06:52;25.42;;;12.85;;
70199;SDS011;57587;55.688;37.600;2023-04-03T06:09:22;22.25;;;11.55;;
70199;SDS011;57587;55.688;37.600;2023-04-03T06:11:53;24.38;;;12.48;;
70199;SDS011;57587;55.688;37.600;2023-04-03T06:14:22;23.53;;;11.97;;
70199;SDS011;57587;55.688;37.600;2023-04-03T06:16:49;25.38;;;12.75;;
70199;SDS011;57587;55.688;37.600;2023-04-03T06:19:17;23.17;;;12.93;;
70199;SDS011;57587;55.688;37.600;2023-04-03T06:21:49;25.63;;;12.75;;
70199;SDS011;57587;55.688;37.600;2023-04-03T06:24:17;26.10;;;12.80;;
70199;SDS011;57587;55.688;37.600;2023-04-03T06:26:46;23.67;;;13.43;;
70199;SDS011;57587;55.688;37.600;2023-04-03T06:29:14;23.83;;;12.48;;
70199;SDS011;57587;55.688;37.600;2023-04-03T06:31:41;24.35;;;12.70;;
70199;SDS011;57587;55.688;37.600;2023-04-03T06:34:08;24.10;;;12.52;;
70199;SDS011;57587;55.688;37.600;2023-04-03T06:36:35;24.80;;;12.40;;
70199;SDS011;57587;55.688;37.600;2023-04-03T06:39:02;20.27;;;13.13;;
70199;SDS011;57587;55.688;37.600;2023-04-03T06:41:30;26.45;;;12.98;;
70199;SDS011;57587;55.688;37.600;2023-04-03T06:43:57;32.50;;;13.40;;
70199;SDS011;57587;55.688;37.600;2023-04-03T06:46:26;26.05;;;12.73;;
70199;SDS011;57587;55.688;37.600;2023-04-03T06:48:53;22.65;;;12.38;;
70199;SDS011;57587;55.688;37.600;2023-04-03T06:51:22;26.90;;;12.73;;
70199;SDS011;57587;55.688;37.600;2023-04-03T06:53:51;30.05;;;13.18;;
70199;SDS011;57587;55.688;37.600;2023-04-03T06:56:20;24.70;;;13.32;;
70199;SDS011;57587;55.688;37.600;2023-04-03T06:58:47;30.80;;;12.55;;
70199;SDS011;57587;55.688;37.600;2023-04-03T07:01:15;23.63;;;12.68;;
70199;SDS011;57587;55.688;37.600;2023-04-03T07:03:44;27.43;;;13.00;;
70199;SDS011;57587;55.688;37.600;2023-04-03T07:06:13;31.90;;;14.18;;
70199;SDS011;57587;55.688;37.600;2023-04-03T07:08:42;26.20;;;14.25;;
70199;SDS011;57587;55.688;37.600;2023-04-03T07:11:10;28.67;;;14.73;;
70199;SDS011;57587;55.688;37.600;2023-04-03T07:13:38;32.90;;;15.35;;
70199;SDS011;57587;55.688;37.600;2023-04-03T07:16:05;34.77;;;15.77;;
70199;SDS011;57587;55.688;37.600;2023-04-03T07:18:33;35.05;;;15.50;;
70199;SDS011;57587;55.688;37.600;2023-04-03T07:21:00;33.25;;;15.70;;
70199;SDS011;57587;55.688;37.600;2023-04-03T07:23:28;38.72;;;14.48;;
70199;SDS011;57587;55.688;37.600;2023-04-03T07:25:56;32.00;;;15.10;;
70199;SDS011;57587;55.688;37.600;2023-04-03T07:28:23;31.83;;;14.77;;
70199;SDS011;57587;55.688;37.600;2023-04-03T07:30:54;27.23;;;14.02;;
70199;SDS011;57587;55.688;37.600;2023-04-03T07:33:26;31.70;;;15.82;;
70199;SDS011;57587;55.688;37.600;2023-04-03T07:35:53;35.97;;;13.60;;
70199;SDS011;57587;55.688;37.600;2023-04-03T07:38:21;38.95;;;15.45;;
70199;SDS011;57587;55.688;37.600;2023-04-03T07:40:48;31.53;;;14.33;;
70199;SDS011;57587;55.688;37.600;2023-04-03T07:43:17;39.67;;;13.05;;
70199;SDS011;57587;55.688;37.600;2023-04-03T07:45:45;27.02;;;15.05;;
70199;SDS011;57587;55.688;37.600;2023-04-03T07:48:17;32.85;;;13.98;;
70199;SDS011;57587;55.688;37.600;2023-04-03T07:50:45;36.25;;;14.80;;
70199;SDS011;57587;55.688;37.600;2023-04-03T07:53:12;25.90;;;12.80;;
70199;SDS011;57587;55.688;37.600;2023-04-03T07:55:40;42.97;;;13.60;;
70199;SDS011;57587;55.688;37.600;2023-04-03T07:58:11;31.52;;;14.55;;
70199;SDS011;57587;55.688;37.600;2023-04-03T08:00:41;34.33;;;14.32;;
70199;SDS011;57587;55.688;37.600;2023-04-03T08:03:09;27.48;;;14.68;;
70199;SDS011;57587;55.688;37.600;2023-04-03T08:05:39;33.30;;;14.50;;
70199;SDS011;57587;55.688;37.600;2023-04-03T08:08:08;33.22;;;14.10;;
70199;SDS011;57587;55.688;37.600;2023-04-03T08:10:37;37.85;;;15.63;;
70199;SDS011;57587;55.688;37.600;2023-04-03T08:13:04;31.02;;;15.25;;
70199;SDS011;57587;55.688;37.600;2023-04-03T08:15:32;34.30;;;15.90;;
70199;SDS011;57587;55.688;37.600;2023-04-03T08:18:00;33.57;;;15.53;;
70199;SDS011;57587;55.688;37.600;2023-04-03T08:20:27;32.50;;;14.70;;
70199;SDS011;57587;55.688;37.600;2023-04-03T08:22:54;35.58;;;15.90;;
70199;SDS011;57587;55.688;37.600;2023-04-03T08:25:22;34.67;;;16.15;;
70199;SDS011;57587;55.688;37.600;2023-04-03T08:27:49;34.80;;;16.10;;
70199;SDS011;57587;55.688;37.600;2023-04-03T08:30:16;35.20;;;15.20;;
70199;SDS011;57587;55.688;37.600;2023-04-03T08:32:44;34.08;;;15.15;;
70199;SDS011;57587;55.688;37.600;2023-04-03T08:35:11;34.50;;;16.13;;
70199;SDS011;57587;55.688;37.600;2023-04-03T08:37:39;42.75;;;16.27;;
70199;SDS011;57587;55.688;37.600;2023-04-03T08:40:07;33.25;;;15.80;;
70199;SDS011;57587;55.688;37.600;2023-04-03T08:42:42;34.80;;;15.27;;
70199;SDS011;57587;55.688;37.600;2023-04-03T08:48:19;38.92;;;16.30;;
70199;SDS011;57587;55.688;37.600;2023-04-03T08:50:56;38.25;;;17.05;;
70199;SDS011;57587;55.688;37.600;2023-04-03T08:53:30;38.55;;;17.58;;
70199;SDS011;57587;55.688;37.600;2023-04-03T08:56:02;39.03;;;16.00;;
70199;SDS011;57587;55.688;37.600;2023-04-03T08:58:42;32.58;;;16.08;;
70199;SDS011;57587;55.688;37.600;2023-04-03T09:01:26;39.05;;;16.70;;
70199;SDS011;57587;55.688;37.600;2023-04-03T09:04:05;39.35;;;16.15;;
70199;SDS011;57587;55.688;37.600;2023-04-03T09:06:41;35.63;;;16.75;;
70199;SDS011;57587;55.688;37.600;2023-04-03T09:09:21;26.03;;;15.80;;
70199;SDS011;57587;55.688;37.600;2023-04-03T09:14:38;32.25;;;15.15;;
70199;SDS011;57587;55.688;37.600;2023-04-03T09:20:38;25.58;;;14.07;;
70199;SDS011;57587;55.688;37.600;2023-04-03T09:23:13;32.33;;;14.53;;
70199;SDS011;57587;55.688;37.600;2023-04-03T09:25:52;29.92;;;15.00;;
70199;SDS011;57587;55.688;37.600;2023-04-03T09:28:23;30.02;;;14.30;;
70199;SDS011;57587;55.688;37.600;2023-04-03T09:30:50;29.38;;;14.73;;
70199;SDS011;57587;55.688;37.600;2023-04-03T09:33:17;35.38;;;14.23;;
70199;SDS011;57587;55.688;37.600;2023-04-03T09:35:45;30.20;;;16.27;;
70199;SDS011;57587;55.688;37.600;2023-04-03T09:38:16;31.23;;;15.48;;
70199;SDS011;57587;55.688;37.600;2023-04-03T09:40:49;31.08;;;14.05;;
70199;SDS011;57587;55.688;37.600;2023-04-03T09:45:51;25.73;;;14.05;;
70199;SDS011;57587;55.688;37.600;2023-04-03T09:48:28;29.93;;;14.47;;
70199;SDS011;57587;55.688;37.600;2023-04-03T09:53:27;26.25;;;13.38;;
70199;SDS011;57587;55.688;37.600;2023-04-03T09:58:44;21.80;;;12.75;;
70199;SDS011;57587;55.688;37.600;2023-04-03T10:01:27;27.67;;;12.70;;
70199;SDS011;57587;55.688;37.600;2023-04-03T10:06:51;22.58;;;12.88;;
70199;SDS011;57587;55.688;37.600;2023-04-03T10:09:21;34.63;;;13.52;;
70199;SDS011;57587;55.688;37.600;2023-04-03T10:12:00;29.90;;;13.23;;
70199;SDS011;57587;55.688;37.600;2023-04-03T10:14:37;29.33;;;14.43;;
70199;SDS011;57587;55.688;37.600;2023-04-03T10:20:26;27.88;;;13.30;;
70199;SDS011;57587;55.688;37.600;2023-04-03T10:26:23;29.35;;;13.43;;
70199;SDS011;57587;55.688;37.600;2023-04-03T10:29:05;24.43;;;13.37;;
70199;SDS011;57587;55.688;37.600;2023-04-03T10:42:40;31.37;;;15.10;;
70199;SDS011;57587;55.688;37.600;2023-04-03T10:45:21;34.97;;;14.73;;
70199;SDS011;57587;55.688;37.600;2023-04-03T10:50:44;27.45;;;13.93;;
70199;SDS011;57587;55.688;37.600;2023-04-03T10:53:31;25.23;;;12.88;;
70199;SDS011;57587;55.688;37.600;2023-04-03T10:58:57;21.92;;;12.23;;
70199;SDS011;57587;55.688;37.600;2023-04-03T11:01:31;26.38;;;12.88;;
70199;SDS011;57587;55.688;37.600;2023-04-03T11:04:04;24.98;;;12.55;;
70199;SDS011;57587;55.688;37.600;2023-04-03T11:06:37;21.48;;;12.35;;
70199;SDS011;57587;55.688;37.600;2023-04-03T11:09:22;22.30;;;11.97;;
70199;SDS011;57587;55.688;37.600;2023-04-03T11:11:55;22.60;;;11.95;;
70199;SDS011;57587;55.688;37.600;2023-04-03T11:14:29;24.42;;;11.88;;
70199;SDS011;57587;55.688;37.600;2023-04-03T11:17:04;19.42;;;11.55;;
70199;SDS011;57587;55.688;37.600;2023-04-03T11:19:39;25.55;;;12.50;;
70199;SDS011;57587;55.688;37.600;2023-04-03T11:22:23;21.73;;;12.17;;
70199;SDS011;57587;55.688;37.600;2023-04-03T11:25:22;19.35;;;11.88;;
70199;SDS011;57587;55.688;37.600;2023-04-03T11:35:36;28.37;;;13.20;;
70199;SDS011;57587;55.688;37.600;2023-04-03T11:38:10;31.02;;;13.40;;
70199;SDS011;57587;55.688;37.600;2023-04-03T11:40:45;30.95;;;12.98;;
70199;SDS011;57587;55.688;37.600;2023-04-03T11:43:21;29.42;;;13.00;;
70199;SDS011;57587;55.688;37.600;2023-04-03T11:50:56;32.35;;;13.13;;
70199;SDS011;57587;55.688;37.600;2023-04-03T12:01:54;28.13;;;11.83;;
70199;SDS011;57587;55.688;37.600;2023-04-03T12:04:24;22.98;;;11.48;;
70199;SDS011;57587;55.688;37.600;2023-04-03T12:07:01;19.85;;;11.57;;
70199;SDS011;57587;55.688;37.600;2023-04-03T12:12:27;19.15;;;10.95;;
70199;SDS011;57587;55.688;37.600;2023-04-03T12:14:54;23.17;;;11.10;;
70199;SDS011;57587;55.688;37.600;2023-04-03T12:17:23;20.80;;;10.95;;
70199;SDS011;57587;55.688;37.600;2023-04-03T12:19:53;19.15;;;10.48;;
70199;SDS011;57587;55.688;37.600;2023-04-03T12:22:20;17.38;;;10.23;;
70199;SDS011;57587;55.688;37.600;2023-04-03T12:24:49;16.10;;;9.68;;
70199;SDS011;57587;55.688;37.600;2023-04-03T12:29:51;17.77;;;9.25;;
70199;SDS011;57587;55.688;37.600;2023-04-03T12:35:39;14.02;;;8.00;;
70199;SDS011;57587;55.688;37.600;2023-04-03T12:46:42;19.75;;;7.78;;
70199;SDS011;57587;55.688;37.600;2023-04-03T12:49:22;12.82;;;7.80;;
70199;SDS011;57587;55.688;37.600;2023-04-03T12:51:51;14.68;;;7.03;;
70199;SDS011;57587;55.688;37.600;2023-04-03T12:57:08;11.15;;;7.05;;
70199;SDS011;57587;55.688;37.600;2023-04-03T12:59:39;17.30;;;7.72;;
70199;SDS011;57587;55.688;37.600;2023-04-03T13:02:14;18.17;;;7.20;;
70199;SDS011;57587;55.688;37.600;2023-04-03T13:04:49;14.05;;;6.80;;
70199;SDS011;57587;55.688;37.600;2023-04-03T13:07:31;16.07;;;7.10;;
70199;SDS011;57587;55.688;37.600;2023-04-03T13:12:35;16.45;;;7.18;;
70199;SDS011;57587;55.688;37.600;2023-04-03T13:15:13;12.73;;;6.95;;
70199;SDS011;57587;55.688;37.600;2023-04-03T13:17:46;12.77;;;6.97;;
70199;SDS011;57587;55.688;37.600;2023-04-03T13:20:30;12.77;;;6.93;;
70199;SDS011;57587;55.688;37.600;2023-04-03T13:23:07;15.02;;;6.60;;
70199;SDS011;57587;55.688;37.600;2023-04-03T13:25:40;14.55;;;7.10;;
70199;SDS011;57587;55.688;37.600;2023-04-03T13:28:10;12.95;;;7.20;;
70199;SDS011;57587;55.688;37.600;2023-04-03T13:30:40;12.60;;;6.90;;
70199;SDS011;57587;55.688;37.600;2023-04-03T13:33:22;19.27;;;7.03;;
70199;SDS011;57587;55.688;37.600;2023-04-03T13:35:56;13.45;;;6.72;;
70199;SDS011;57587;55.688;37.600;2023-04-03T13:38:29;18.00;;;7.70;;
70199;SDS011;57587;55.688;37.600;2023-04-03T13:41:02;12.95;;;7.45;;
70199;SDS011;57587;55.688;37.600;2023-04-03T13:44:17;15.63;;;7.60;;
70199;SDS011;57587;55.688;37.600;2023-04-03T13:46:48;15.30;;;7.57;;
70199;SDS011;57587;55.688;37.600;2023-04-03T13:49:42;15.98;;;7.68;;
70199;SDS011;57587;55.688;37.600;2023-04-03T13:55:16;16.55;;;7.68;;
70199;SDS011;57587;55.688;37.600;2023-04-03T14:00:36;17.50;;;8.40;;
70199;SDS011;57587;55.688;37.600;2023-04-03T14:03:16;13.82;;;8.18;;
70199;SDS011;57587;55.688;37.600;2023-04-03T14:05:45;19.40;;;8.20;;
70199;SDS011;57587;55.688;37.600;2023-04-03T14:08:13;17.10;;;7.35;;
70199;SDS011;57587;55.688;37.600;2023-04-03T14:10:40;11.43;;;6.95;;
70199;SDS011;57587;55.688;37.600;2023-04-03T14:13:12;12.63;;;7.17;;
70199;SDS011;57587;55.688;37.600;2023-04-03T14:15:42;14.48;;;7.78;;
70199;SDS011;57587;55.688;37.600;2023-04-03T14:18:11;18.88;;;8.60;;
70199;SDS011;57587;55.688;37.600;2023-04-03T14:20:39;20.45;;;9.40;;
70199;SDS011;57587;55.688;37.600;2023-04-03T14:23:07;24.15;;;9.65;;
70199;SDS011;57587;55.688;37.600;2023-04-03T14:25:36;16.57;;;8.70;;
70199;SDS011;57587;55.688;37.600;2023-04-03T14:28:11;21.10;;;9.15;;
70199;SDS011;57587;55.688;37.600;2023-04-03T14:30:48;15.85;;;7.90;;
70199;SDS011;57587;55.688;37.600;2023-04-03T14:33:20;20.88;;;8.23;;
70199;SDS011;57587;55.688;37.600;2023-04-03T14:35:49;22.63;;;8.48;;
70199;SDS011;57587;55.688;37.600;2023-04-03T14:38:34;17.90;;;8.20;;
70199;SDS011;57587;55.688;37.600;2023-04-03T14:41:01;20.35;;;9.85;;
70199;SDS011;57587;55.688;37.600;2023-04-03T14:43:41;20.00;;;9.30;;
70199;SDS011;57587;55.688;37.600;2023-04-03T14:46:13;22.77;;;9.38;;
70199;SDS011;57587;55.688;37.600;2023-04-03T14:48:43;18.08;;;8.00;;
70199;SDS011;57587;55.688;37.600;2023-04-03T14:51:11;16.70;;;8.07;;
70199;SDS011;57587;55.688;37.600;2023-04-03T14:53:40;23.02;;;9.13;;
70199;SDS011;57587;55.688;37.600;2023-04-03T14:56:16;20.42;;;8.63;;
70199;SDS011;57587;55.688;37.600;2023-04-03T14:58:45;32.53;;;9.55;;
70199;SDS011;57587;55.688;37.600;2023-04-03T15:01:16;22.08;;;8.90;;
70199;SDS011;57587;55.688;37.600;2023-04-03T15:03:44;28.40;;;9.70;;
70199;SDS011;57587;55.688;37.600;2023-04-03T15:06:12;27.45;;;9.77;;
70199;SDS011;57587;55.688;37.600;2023-04-03T15:08:41;14.52;;;7.97;;
70199;SDS011;57587;55.688;37.600;2023-04-03T15:11:10;18.38;;;8.02;;
70199;SDS011;57587;55.688;37.600;2023-04-03T15:13:38;26.20;;;9.00;;
70199;SDS011;57587;55.688;37.600;2023-04-03T15:16:11;25.10;;;8.97;;
70199;SDS011;57587;55.688;37.600;2023-04-03T15:18:42;26.38;;;9.82;;
70199;SDS011;57587;55.688;37.600;2023-04-03T15:21:10;36.25;;;10.80;;
70199;SDS011;57587;55.688;37.600;2023-04-03T15:23:37;34.58;;;11.32;;
70199;SDS011;57587;55.688;37.600;2023-04-03T15:26:04;26.52;;;10.95;;
70199;SDS011;57587;55.688;37.600;2023-04-03T15:28:33;31.87;;;10.80;;
70199;SDS011;57587;55.688;37.600;2023-04-03T15:31:03;24.30;;;10.82;;
70199;SDS011;57587;55.688;37.600;2023-04-03T15:33:31;20.08;;;9.90;;
70199;SDS011;57587;55.688;37.600;2023-04-03T15:35:59;18.42;;;9.60;;
70199;SDS011;57587;55.688;37.600;2023-04-03T15:38:33;19.42;;;9.45;;
70199;SDS011;57587;55.688;37.600;2023-04-03T15:41:00;24.60;;;9.20;;
70199;SDS011;57587;55.688;37.600;2023-04-03T15:43:28;19.10;;;9.43;;
70199;SDS011;57587;55.688;37.600;2023-04-03T15:45:58;16.35;;;9.07;;
70199;SDS011;57587;55.688;37.600;2023-04-03T15:48:26;19.52;;;8.90;;
70199;SDS011;57587;55.688;37.600;2023-04-03T15:50:54;24.20;;;9.65;;
70199;SDS011;57587;55.688;37.600;2023-04-03T15:53:24;23.80;;;10.20;;
70199;SDS011;57587;55.688;37.600;2023-04-03T15:55:51;32.63;;;11.98;;
70199;SDS011;57587;55.688;37.600;2023-04-03T15:58:18;22.02;;;12.18;;
70199;SDS011;57587;55.688;37.600;2023-04-03T16:00:45;30.85;;;12.00;;
70199;SDS011;57587;55.688;37.600;2023-04-03T16:03:15;32.85;;;12.60;;
70199;SDS011;57587;55.688;37.600;2023-04-03T16:05:44;38.57;;;13.40;;
70199;SDS011;57587;55.688;37.600;2023-04-03T16:08:12;28.02;;;10.70;;
70199;SDS011;57587;55.688;37.600;2023-04-03T16:10:39;33.55;;;14.18;;